Ana Sayfa
METAR-TAF:

METAR-TAF

Havaalanları :

Marianna Municipal Airport

Marianna, Florida, Amerika Birleşik Devletleri

Enlem: 30-50-12N, Boylam: 085-11-01W, yükseklik: 34 m

Güncel hava durumu gözlemi

Rapor saat 17:53 UTC de 42 dakika önce yapıldı.
Rüzgar güneydan 5 kt
Sıcaklık 34°C
Nem 50%
Basınç 1014 hPa
Görüş mesafesi: 16.1 km
5000 ft yükseklikte parçalı çok bulutlu
7000 ft yükseklikte parçalı çok bulutlu

METAR: KMAI 251753Z AUTO 19005KT 10SM BKN050 BKN070 34/22 A2993 RMK AO2 SLP133 T03440217 10356 20256 58004

Saat: 13:35 (18:35 UTC)


TAF: eksik

4.000'den fazla havaalanı için hava durumu gözlemleri ve tahminleri (METAR ve TAF raporları).

Kullanılabilir istasyonlar harita üzerinde sarı ve kırmızı noktalarla gösterilir.

İstasyonun adını görmek için fareyi noktanın üzerinde gezdirin.

Sonrasında hava gözlem ve tahminlerini görmek için tıklayın.

Haritayı değiştirmek için: yaklaştırmak için siyah artı işaretli yeşil düğmeye ve uzaklaştırmak için de eksi işaretli düğmeye hızla tıklayın; bitişik haritalar için yeşil okları kullanın.


METAR-TAF: